Time,TemperatureF,DewpointF,PressureIn,WindDirection,WindDirectionDegrees,WindSpeedMPH,WindSpeedGustMPH,Humidity,HourlyPrecipIn,Conditions,Clouds,dailyrainin,SoftwareType,DateUTC
2013-06-05 09:02:00,59.9,44.2,30.13,NNE,22,1.7,-999.0,56,-99.99,,,0.00,Acu-Link.com,2013-06-05 13:02:00,
2013-06-05 09:18:00,60.6,43.4,30.12,NE,45,2.7,-999.0,53,-99.99,,,0.00,Acu-Link.com,2013-06-05 13:18:00,
2013-06-05 09:33:00,59.4,43.7,30.12,ENE,67,2.2,-999.0,56,-99.99,,,0.00,Acu-Link.com,2013-06-05 13:33:00,
2013-06-05 09:48:00,62.6,44.7,30.13,East,90,0.0,-999.0,52,-99.99,,,0.00,Acu-Link.com,2013-06-05 13:48:00,
2013-06-05 10:03:00,63.1,44.2,30.12,NE,45,3.2,-999.0,50,-99.99,,,0.00,Acu-Link.com,2013-06-05 14:03:00,
2013-06-05 10:18:00,60.3,44.1,30.11,South,180,3.2,-999.0,55,-99.99,,,0.00,Acu-Link.com,2013-06-05 14:18:00,
2013-06-05 10:33:00,61.5,45.2,30.10,ESE,112,3.2,-999.0,55,-99.99,,,0.00,Acu-Link.com,2013-06-05 14:33:00,
2013-06-05 10:48:00,62.2,44.4,30.08,NNE,22,2.2,-999.0,52,-99.99,,,0.00,Acu-Link.com,2013-06-05 14:48:00,
2013-06-05 11:03:00,63.5,46.1,30.07,South,180,5.3,-999.0,53,-99.99,,,0.00,Acu-Link.com,2013-06-05 15:03:00,
2013-06-05 11:18:00,64.9,46.3,30.07,East,90,2.2,-999.0,51,-99.99,,,0.00,Acu-Link.com,2013-06-05 15:18:00,
2013-06-05 11:34:00,64.8,47.3,30.07,South,180,1.1,-999.0,53,-99.99,,,0.00,Acu-Link.com,2013-06-05 15:34:00,
2013-06-05 11:49:00,65.3,46.2,30.07,WNW,292,2.7,-999.0,50,-99.99,,,0.00,Acu-Link.com,2013-06-05 15:49:00,
2013-06-05 12:04:00,66.4,47.2,30.07,SSE,157,3.7,-999.0,50,-99.99,,,0.00,Acu-Link.com,2013-06-05 16:04:00,
2013-06-05 12:19:00,65.3,46.2,30.06,ESE,112,2.2,-999.0,50,-99.99,,,0.00,Acu-Link.com,2013-06-05 16:19:00,
2013-06-05 12:34:00,66.6,47.9,30.06,NE,45,1.1,-999.0,51,-99.99,,,0.00,Acu-Link.com,2013-06-05 16:34:00,
2013-06-05 12:49:00,66.7,46.4,30.06,NNE,22,1.7,-999.0,48,-99.99,,,0.00,Acu-Link.com,2013-06-05 16:49:00,
2013-06-05 13:04:00,70.7,49.5,30.05,NNW,337,3.2,-999.0,47,-99.99,,,0.00,Acu-Link.com,2013-06-05 17:04:00,
2013-06-05 13:19:00,71.4,50.1,30.04,SSW,202,2.2,-999.0,47,-99.99,,,0.00,Acu-Link.com,2013-06-05 17:19:00,
2013-06-05 13:34:00,70.9,50.8,30.03,WSW,247,2.7,-999.0,49,-99.99,,,0.00,Acu-Link.com,2013-06-05 17:34:00,
2013-06-05 13:50:00,71.2,49.3,30.03,ENE,67,4.7,-999.0,46,-99.99,,,0.00,Acu-Link.com,2013-06-05 17:50:00,
2013-06-05 14:05:00,72.0,51.8,30.03,NNE,22,2.2,-999.0,49,-99.99,,,0.00,Acu-Link.com,2013-06-05 18:05:00,
2013-06-05 14:20:00,71.8,52.1,30.02,NNE,22,1.7,-999.0,50,-99.99,,,0.00,Acu-Link.com,2013-06-05 18:20:00,
2013-06-05 14:35:00,70.3,50.2,30.02,NNE,22,2.7,-999.0,49,-99.99,,,0.00,Acu-Link.com,2013-06-05 18:35:00,
2013-06-05 14:50:00,72.3,51.5,30.01,North,0,3.7,-999.0,48,-99.99,,,0.00,Acu-Link.com,2013-06-05 18:50:00,
2013-06-05 15:05:00,71.6,49.1,30.01,NW,315,3.7,-999.0,45,-99.99,,,0.00,Acu-Link.com,2013-06-05 19:05:00,
2013-06-05 15:20:00,72.5,54.9,30.01,SE,135,4.2,-999.0,54,-99.99,,,0.00,Acu-Link.com,2013-06-05 19:20:00,
2013-06-05 15:35:00,70.5,51.5,30.00,NNE,22,1.7,-999.0,51,-99.99,,,0.00,Acu-Link.com,2013-06-05 19:35:00,
2013-06-05 15:50:00,71.4,48.9,30.00,NNE,22,0.0,-999.0,45,-99.99,,,0.00,Acu-Link.com,2013-06-05 19:50:00,
2013-06-05 16:06:00,76.5,51.7,30.00,WSW,247,1.7,-999.0,42,-99.99,,,0.00,Acu-Link.com,2013-06-05 20:06:00,
2013-06-05 16:21:00,75.2,51.2,30.00,SSW,202,0.0,-999.0,43,-99.99,,,0.00,Acu-Link.com,2013-06-05 20:21:00,
2013-06-05 16:36:00,73.4,52.5,29.99,NNE,22,1.1,-999.0,48,-99.99,,,0.00,Acu-Link.com,2013-06-05 20:36:00,
2013-06-05 16:51:00,73.9,53.0,29.99,ESE,112,0.0,-999.0,48,-99.99,,,0.00,Acu-Link.com,2013-06-05 20:51:00,
2013-06-05 17:06:00,72.3,52.6,29.99,NE,45,2.7,-999.0,50,-99.99,,,0.00,Acu-Link.com,2013-06-05 21:06:00,
2013-06-05 17:21:00,71.8,51.6,29.98,NE,45,1.7,-999.0,49,-99.99,,,0.00,Acu-Link.com,2013-06-05 21:21:00,
2013-06-05 17:36:00,69.3,52.9,29.98,SSW,202,2.2,-999.0,56,-99.99,,,0.00,Acu-Link.com,2013-06-05 21:36:00,
2013-06-05 17:52:00,69.8,53.4,29.97,NNE,22,2.7,-999.0,56,-99.99,,,0.00,Acu-Link.com,2013-06-05 21:52:00,
2013-06-05 18:07:00,71.4,52.8,29.97,NNE,22,2.2,-999.0,52,-99.99,,,0.00,Acu-Link.com,2013-06-05 22:07:00,
2013-06-05 18:22:00,68.9,52.5,29.97,NNE,22,0.0,-999.0,56,-99.99,,,0.00,Acu-Link.com,2013-06-05 22:22:00,
2013-06-05 18:37:00,68.2,53.3,29.97,ESE,112,1.7,-999.0,59,-99.99,,,0.00,Acu-Link.com,2013-06-05 22:37:00,
2013-06-05 18:52:00,66.4,53.4,29.96,NNE,22,0.0,-999.0,63,-99.99,,,0.00,Acu-Link.com,2013-06-05 22:52:00,
2013-06-05 19:07:00,65.8,52.4,29.96,ESE,112,2.2,-999.0,62,-99.99,,,0.00,Acu-Link.com,2013-06-05 23:07:00,
2013-06-05 19:22:00,64.8,51.5,29.95,ENE,67,4.7,-999.0,62,-99.99,,,0.00,Acu-Link.com,2013-06-05 23:22:00,
2013-06-05 19:37:00,64.4,51.5,29.94,SW,225,1.1,-999.0,63,-99.99,,,0.00,Acu-Link.com,2013-06-05 23:37:00,
2013-06-05 19:53:00,64.2,51.8,29.94,NNE,22,1.7,-999.0,64,-99.99,,,0.00,Acu-Link.com,2013-06-05 23:53:00,
2013-06-05 20:08:00,63.7,50.9,29.95,NNE,22,2.7,-999.0,63,-99.99,,,0.00,Acu-Link.com,2013-06-06 00:08:00,
2013-06-05 20:23:00,63.3,50.5,29.95,ENE,67,2.7,-999.0,63,-99.99,,,0.00,Acu-Link.com,2013-06-06 00:23:00,
2013-06-05 20:38:00,63.0,50.6,29.95,NNE,22,0.0,-999.0,64,-99.99,,,0.00,Acu-Link.com,2013-06-06 00:38:00,
2013-06-05 20:53:00,62.4,48.8,29.95,NNE,22,0.0,-999.0,61,-99.99,,,0.00,Acu-Link.com,2013-06-06 00:53:00,
2013-06-05 21:08:00,61.7,48.1,29.96,NNE,22,0.0,-999.0,61,-99.99,,,0.00,Acu-Link.com,2013-06-06 01:08:00,
2013-06-05 21:24:00,61.5,49.2,29.96,NNE,22,0.0,-999.0,64,-99.99,,,0.00,Acu-Link.com,2013-06-06 01:24:00,
2013-06-05 21:39:00,61.2,49.3,29.96,NNE,22,0.0,-999.0,65,-99.99,,,0.00,Acu-Link.com,2013-06-06 01:39:00,